sensor_id;sensor_type;location;lat;lon;timestamp;P1;durP1;ratioP1;P2;durP2;ratioP2
5543;SDS011;2795;47.652;13.128;2022-09-14T00:00:31;12.23;;;3.90;;
5543;SDS011;2795;47.652;13.128;2022-09-14T00:02:57;15.43;;;4.30;;
5543;SDS011;2795;47.652;13.128;2022-09-14T00:05:24;12.07;;;3.87;;
5543;SDS011;2795;47.652;13.128;2022-09-14T00:07:52;8.03;;;3.40;;
5543;SDS011;2795;47.652;13.128;2022-09-14T00:10:19;13.07;;;3.90;;
5543;SDS011;2795;47.652;13.128;2022-09-14T00:12:45;9.93;;;3.10;;
5543;SDS011;2795;47.652;13.128;2022-09-14T00:15:12;7.20;;;3.10;;
5543;SDS011;2795;47.652;13.128;2022-09-14T00:17:38;7.50;;;3.20;;
5543;SDS011;2795;47.652;13.128;2022-09-14T00:20:05;19.63;;;5.07;;
5543;SDS011;2795;47.652;13.128;2022-09-14T00:22:32;14.40;;;4.13;;
5543;SDS011;2795;47.652;13.128;2022-09-14T00:24:59;30.23;;;5.83;;
5543;SDS011;2795;47.652;13.128;2022-09-14T00:27:25;15.63;;;3.90;;
5543;SDS011;2795;47.652;13.128;2022-09-14T00:29:52;12.80;;;3.30;;
5543;SDS011;2795;47.652;13.128;2022-09-14T00:32:19;6.83;;;3.27;;
5543;SDS011;2795;47.652;13.128;2022-09-14T00:34:45;7.57;;;3.13;;
5543;SDS011;2795;47.652;13.128;2022-09-14T00:37:11;9.23;;;3.20;;
5543;SDS011;2795;47.652;13.128;2022-09-14T00:39:38;12.00;;;3.67;;
5543;SDS011;2795;47.652;13.128;2022-09-14T00:42:05;16.60;;;4.00;;
5543;SDS011;2795;47.652;13.128;2022-09-14T00:46:59;16.00;;;4.63;;
5543;SDS011;2795;47.652;13.128;2022-09-14T00:49:35;13.67;;;3.93;;
5543;SDS011;2795;47.652;13.128;2022-09-14T00:52:07;14.03;;;3.57;;
5543;SDS011;2795;47.652;13.128;2022-09-14T00:54:36;7.80;;;3.50;;
5543;SDS011;2795;47.652;13.128;2022-09-14T00:57:19;9.77;;;3.77;;
5543;SDS011;2795;47.652;13.128;2022-09-14T00:59:48;14.60;;;4.03;;
5543;SDS011;2795;47.652;13.128;2022-09-14T01:02:15;14.50;;;3.93;;
5543;SDS011;2795;47.652;13.128;2022-09-14T01:04:42;13.03;;;3.77;;
5543;SDS011;2795;47.652;13.128;2022-09-14T01:18:15;13.23;;;4.20;;
5543;SDS011;2795;47.652;13.128;2022-09-14T01:21:00;11.67;;;3.90;;
5543;SDS011;2795;47.652;13.128;2022-09-14T01:23:48;19.30;;;4.37;;
5543;SDS011;2795;47.652;13.128;2022-09-14T01:26:40;23.23;;;4.67;;
5543;SDS011;2795;47.652;13.128;2022-09-14T01:29:19;12.30;;;3.43;;
5543;SDS011;2795;47.652;13.128;2022-09-14T01:42:40;10.40;;;3.50;;
5543;SDS011;2795;47.652;13.128;2022-09-14T01:45:09;6.93;;;2.90;;
5543;SDS011;2795;47.652;13.128;2022-09-14T01:47:45;13.90;;;3.87;;
5543;SDS011;2795;47.652;13.128;2022-09-14T01:50:22;12.07;;;3.57;;
5543;SDS011;2795;47.652;13.128;2022-09-14T01:52:55;7.73;;;2.97;;
5543;SDS011;2795;47.652;13.128;2022-09-14T01:55:29;20.20;;;4.63;;
5543;SDS011;2795;47.652;13.128;2022-09-14T01:58:14;22.50;;;5.13;;
5543;SDS011;2795;47.652;13.128;2022-09-14T02:00:53;11.63;;;3.43;;
5543;SDS011;2795;47.652;13.128;2022-09-14T02:03:24;12.50;;;2.60;;
5543;SDS011;2795;47.652;13.128;2022-09-14T02:06:11;4.43;;;2.53;;
5543;SDS011;2795;47.652;13.128;2022-09-14T02:08:43;7.93;;;3.07;;
5543;SDS011;2795;47.652;13.128;2022-09-14T02:11:10;9.77;;;3.13;;
5543;SDS011;2795;47.652;13.128;2022-09-14T02:13:36;11.10;;;3.13;;
5543;SDS011;2795;47.652;13.128;2022-09-14T02:16:03;12.77;;;3.60;;
5543;SDS011;2795;47.652;13.128;2022-09-14T02:18:30;10.90;;;3.37;;
5543;SDS011;2795;47.652;13.128;2022-09-14T02:20:58;15.90;;;3.57;;
5543;SDS011;2795;47.652;13.128;2022-09-14T02:23:27;11.73;;;3.67;;
5543;SDS011;2795;47.652;13.128;2022-09-14T02:25:53;8.40;;;3.00;;
5543;SDS011;2795;47.652;13.128;2022-09-14T02:28:21;8.30;;;3.33;;
5543;SDS011;2795;47.652;13.128;2022-09-14T02:30:54;11.63;;;3.13;;
5543;SDS011;2795;47.652;13.128;2022-09-14T02:33:41;8.37;;;3.23;;
5543;SDS011;2795;47.652;13.128;2022-09-14T02:36:15;12.70;;;3.43;;
5543;SDS011;2795;47.652;13.128;2022-09-14T02:38:53;9.70;;;3.13;;
5543;SDS011;2795;47.652;13.128;2022-09-14T02:41:28;4.67;;;2.73;;
5543;SDS011;2795;47.652;13.128;2022-09-14T02:44:14;13.63;;;3.40;;
5543;SDS011;2795;47.652;13.128;2022-09-14T02:49:17;12.40;;;3.70;;
5543;SDS011;2795;47.652;13.128;2022-09-14T02:54:32;7.70;;;3.27;;
5543;SDS011;2795;47.652;13.128;2022-09-14T02:57:02;15.93;;;4.20;;
5543;SDS011;2795;47.652;13.128;2022-09-14T02:59:29;12.13;;;3.67;;
5543;SDS011;2795;47.652;13.128;2022-09-14T03:01:57;10.33;;;3.13;;
5543;SDS011;2795;47.652;13.128;2022-09-14T03:04:24;11.83;;;3.40;;
5543;SDS011;2795;47.652;13.128;2022-09-14T03:06:50;11.50;;;3.20;;
5543;SDS011;2795;47.652;13.128;2022-09-14T03:09:17;8.13;;;2.90;;
5543;SDS011;2795;47.652;13.128;2022-09-14T03:11:44;6.40;;;2.93;;
5543;SDS011;2795;47.652;13.128;2022-09-14T03:14:10;10.57;;;3.23;;
5543;SDS011;2795;47.652;13.128;2022-09-14T03:16:37;12.60;;;3.40;;
5543;SDS011;2795;47.652;13.128;2022-09-14T03:19:04;12.30;;;3.90;;
5543;SDS011;2795;47.652;13.128;2022-09-14T03:21:31;14.20;;;3.53;;
5543;SDS011;2795;47.652;13.128;2022-09-14T03:23:58;15.80;;;3.40;;
5543;SDS011;2795;47.652;13.128;2022-09-14T03:26:25;18.83;;;3.70;;
5543;SDS011;2795;47.652;13.128;2022-09-14T03:28:55;8.53;;;2.80;;
5543;SDS011;2795;47.652;13.128;2022-09-14T03:31:23;17.70;;;3.20;;
5543;SDS011;2795;47.652;13.128;2022-09-14T03:33:54;10.47;;;3.20;;
5543;SDS011;2795;47.652;13.128;2022-09-14T03:36:21;9.20;;;2.80;;
5543;SDS011;2795;47.652;13.128;2022-09-14T03:38:50;9.40;;;3.07;;
5543;SDS011;2795;47.652;13.128;2022-09-14T03:41:19;8.13;;;2.97;;
5543;SDS011;2795;47.652;13.128;2022-09-14T03:43:46;9.23;;;2.90;;
5543;SDS011;2795;47.652;13.128;2022-09-14T03:46:14;11.43;;;2.97;;
5543;SDS011;2795;47.652;13.128;2022-09-14T03:48:42;9.27;;;3.00;;
5543;SDS011;2795;47.652;13.128;2022-09-14T03:51:10;11.37;;;3.37;;
5543;SDS011;2795;47.652;13.128;2022-09-14T03:53:37;16.87;;;3.90;;
5543;SDS011;2795;47.652;13.128;2022-09-14T03:56:06;23.47;;;3.73;;
5543;SDS011;2795;47.652;13.128;2022-09-14T03:58:36;14.27;;;3.80;;
5543;SDS011;2795;47.652;13.128;2022-09-14T04:01:04;14.93;;;3.93;;
5543;SDS011;2795;47.652;13.128;2022-09-14T04:03:31;14.07;;;3.80;;
5543;SDS011;2795;47.652;13.128;2022-09-14T04:05:58;8.60;;;3.03;;
5543;SDS011;2795;47.652;13.128;2022-09-14T04:08:24;10.30;;;3.47;;
5543;SDS011;2795;47.652;13.128;2022-09-14T04:10:51;6.80;;;3.00;;
5543;SDS011;2795;47.652;13.128;2022-09-14T04:13:18;9.57;;;3.07;;
5543;SDS011;2795;47.652;13.128;2022-09-14T04:15:54;13.50;;;3.30;;
5543;SDS011;2795;47.652;13.128;2022-09-14T04:18:21;10.83;;;3.57;;
5543;SDS011;2795;47.652;13.128;2022-09-14T04:20:57;11.37;;;3.33;;
5543;SDS011;2795;47.652;13.128;2022-09-14T04:23:34;20.07;;;4.40;;
5543;SDS011;2795;47.652;13.128;2022-09-14T04:26:17;8.17;;;3.10;;
5543;SDS011;2795;47.652;13.128;2022-09-14T04:28:44;19.77;;;4.67;;
5543;SDS011;2795;47.652;13.128;2022-09-14T04:31:11;14.37;;;4.10;;
5543;SDS011;2795;47.652;13.128;2022-09-14T04:33:39;15.90;;;4.20;;
5543;SDS011;2795;47.652;13.128;2022-09-14T04:36:11;13.70;;;3.37;;
5543;SDS011;2795;47.652;13.128;2022-09-14T04:38:39;12.47;;;4.07;;
5543;SDS011;2795;47.652;13.128;2022-09-14T04:41:17;10.90;;;3.90;;
5543;SDS011;2795;47.652;13.128;2022-09-14T04:43:46;10.40;;;3.27;;
5543;SDS011;2795;47.652;13.128;2022-09-14T04:46:15;12.93;;;3.73;;
5543;SDS011;2795;47.652;13.128;2022-09-14T04:48:44;10.53;;;3.20;;
5543;SDS011;2795;47.652;13.128;2022-09-14T04:51:15;20.30;;;4.10;;
5543;SDS011;2795;47.652;13.128;2022-09-14T04:53:43;21.03;;;3.53;;
5543;SDS011;2795;47.652;13.128;2022-09-14T04:56:12;17.43;;;4.47;;
5543;SDS011;2795;47.652;13.128;2022-09-14T04:58:43;9.53;;;3.40;;
5543;SDS011;2795;47.652;13.128;2022-09-14T05:01:18;11.33;;;4.17;;
5543;SDS011;2795;47.652;13.128;2022-09-14T05:03:45;22.27;;;4.97;;
5543;SDS011;2795;47.652;13.128;2022-09-14T05:06:17;15.03;;;4.50;;
5543;SDS011;2795;47.652;13.128;2022-09-14T05:08:45;19.30;;;4.70;;
5543;SDS011;2795;47.652;13.128;2022-09-14T05:11:13;44.67;;;6.93;;
5543;SDS011;2795;47.652;13.128;2022-09-14T05:13:41;19.83;;;4.83;;
5543;SDS011;2795;47.652;13.128;2022-09-14T05:16:16;15.43;;;4.40;;
5543;SDS011;2795;47.652;13.128;2022-09-14T05:18:47;13.70;;;4.40;;
5543;SDS011;2795;47.652;13.128;2022-09-14T05:21:14;17.57;;;5.90;;
5543;SDS011;2795;47.652;13.128;2022-09-14T05:23:42;16.00;;;5.40;;
5543;SDS011;2795;47.652;13.128;2022-09-14T05:26:09;17.80;;;4.70;;
5543;SDS011;2795;47.652;13.128;2022-09-14T05:28:36;15.30;;;4.00;;
5543;SDS011;2795;47.652;13.128;2022-09-14T05:31:07;18.57;;;3.77;;
5543;SDS011;2795;47.652;13.128;2022-09-14T05:33:35;16.20;;;4.40;;
5543;SDS011;2795;47.652;13.128;2022-09-14T05:36:03;12.50;;;3.33;;
5543;SDS011;2795;47.652;13.128;2022-09-14T05:38:32;14.77;;;3.50;;
5543;SDS011;2795;47.652;13.128;2022-09-14T05:41:01;9.80;;;3.30;;
5543;SDS011;2795;47.652;13.128;2022-09-14T05:43:28;10.23;;;3.33;;
5543;SDS011;2795;47.652;13.128;2022-09-14T05:45:55;18.87;;;4.10;;
5543;SDS011;2795;47.652;13.128;2022-09-14T05:48:22;4.20;;;2.70;;
5543;SDS011;2795;47.652;13.128;2022-09-14T05:50:48;13.20;;;3.90;;
5543;SDS011;2795;47.652;13.128;2022-09-14T05:53:23;20.67;;;4.27;;
5543;SDS011;2795;47.652;13.128;2022-09-14T05:55:57;10.33;;;3.90;;
5543;SDS011;2795;47.652;13.128;2022-09-14T05:58:26;13.40;;;3.63;;
5543;SDS011;2795;47.652;13.128;2022-09-14T06:00:52;13.73;;;3.13;;
5543;SDS011;2795;47.652;13.128;2022-09-14T06:03:19;10.13;;;3.10;;
5543;SDS011;2795;47.652;13.128;2022-09-14T06:05:45;9.23;;;3.20;;
5543;SDS011;2795;47.652;13.128;2022-09-14T06:08:12;12.20;;;3.37;;
5543;SDS011;2795;47.652;13.128;2022-09-14T06:10:38;18.60;;;4.23;;
5543;SDS011;2795;47.652;13.128;2022-09-14T06:13:05;8.20;;;3.13;;
5543;SDS011;2795;47.652;13.128;2022-09-14T06:15:33;12.97;;;3.70;;
5543;SDS011;2795;47.652;13.128;2022-09-14T06:18:00;10.23;;;3.00;;
5543;SDS011;2795;47.652;13.128;2022-09-14T06:20:26;8.60;;;3.20;;
5543;SDS011;2795;47.652;13.128;2022-09-14T06:22:53;12.70;;;3.60;;
5543;SDS011;2795;47.652;13.128;2022-09-14T06:25:20;10.77;;;3.00;;
5543;SDS011;2795;47.652;13.128;2022-09-14T06:27:51;8.80;;;2.87;;
5543;SDS011;2795;47.652;13.128;2022-09-14T06:30:19;14.77;;;3.30;;
5543;SDS011;2795;47.652;13.128;2022-09-14T06:32:46;14.33;;;3.60;;
5543;SDS011;2795;47.652;13.128;2022-09-14T06:35:13;16.07;;;3.60;;
5543;SDS011;2795;47.652;13.128;2022-09-14T06:37:40;14.13;;;3.00;;
5543;SDS011;2795;47.652;13.128;2022-09-14T06:40:07;18.63;;;3.77;;
5543;SDS011;2795;47.652;13.128;2022-09-14T06:42:34;15.83;;;3.43;;
5543;SDS011;2795;47.652;13.128;2022-09-14T06:45:00;10.20;;;3.10;;
5543;SDS011;2795;47.652;13.128;2022-09-14T06:47:30;8.10;;;3.20;;
5543;SDS011;2795;47.652;13.128;2022-09-14T06:49:57;13.17;;;3.10;;
5543;SDS011;2795;47.652;13.128;2022-09-14T06:52:24;11.70;;;3.30;;
5543;SDS011;2795;47.652;13.128;2022-09-14T06:54:55;12.53;;;3.37;;
5543;SDS011;2795;47.652;13.128;2022-09-14T06:57:22;16.57;;;2.90;;
5543;SDS011;2795;47.652;13.128;2022-09-14T06:59:48;11.97;;;3.23;;
5543;SDS011;2795;47.652;13.128;2022-09-14T07:02:15;12.30;;;3.20;;
5543;SDS011;2795;47.652;13.128;2022-09-14T07:04:42;11.60;;;3.00;;
5543;SDS011;2795;47.652;13.128;2022-09-14T07:07:08;6.07;;;2.67;;
5543;SDS011;2795;47.652;13.128;2022-09-14T07:09:35;19.47;;;4.13;;
5543;SDS011;2795;47.652;13.128;2022-09-14T07:12:01;12.40;;;3.40;;
5543;SDS011;2795;47.652;13.128;2022-09-14T07:14:28;12.13;;;2.83;;
5543;SDS011;2795;47.652;13.128;2022-09-14T07:16:57;9.67;;;3.07;;
5543;SDS011;2795;47.652;13.128;2022-09-14T07:19:24;16.33;;;3.90;;
5543;SDS011;2795;47.652;13.128;2022-09-14T07:21:50;12.77;;;3.50;;
5543;SDS011;2795;47.652;13.128;2022-09-14T07:24:19;10.50;;;3.20;;
5543;SDS011;2795;47.652;13.128;2022-09-14T07:26:45;10.10;;;3.10;;
5543;SDS011;2795;47.652;13.128;2022-09-14T07:29:15;11.23;;;3.23;;
5543;SDS011;2795;47.652;13.128;2022-09-14T07:34:12;21.90;;;4.30;;
5543;SDS011;2795;47.652;13.128;2022-09-14T07:36:39;12.83;;;3.60;;
5543;SDS011;2795;47.652;13.128;2022-09-14T07:39:06;14.83;;;4.07;;
5543;SDS011;2795;47.652;13.128;2022-09-14T07:41:34;8.00;;;3.17;;
5543;SDS011;2795;47.652;13.128;2022-09-14T07:44:02;20.23;;;4.03;;
5543;SDS011;2795;47.652;13.128;2022-09-14T07:46:31;9.40;;;3.00;;
5543;SDS011;2795;47.652;13.128;2022-09-14T07:49:03;23.87;;;3.60;;
5543;SDS011;2795;47.652;13.128;2022-09-14T07:51:30;17.43;;;3.80;;
5543;SDS011;2795;47.652;13.128;2022-09-14T07:53:57;12.57;;;3.10;;
5543;SDS011;2795;47.652;13.128;2022-09-14T07:56:26;10.93;;;3.50;;
5543;SDS011;2795;47.652;13.128;2022-09-14T07:58:53;18.47;;;3.90;;
5543;SDS011;2795;47.652;13.128;2022-09-14T08:01:43;12.37;;;4.00;;
5543;SDS011;2795;47.652;13.128;2022-09-14T08:04:12;13.47;;;3.47;;
5543;SDS011;2795;47.652;13.128;2022-09-14T08:06:38;18.47;;;4.30;;
5543;SDS011;2795;47.652;13.128;2022-09-14T08:09:06;21.23;;;3.77;;
5543;SDS011;2795;47.652;13.128;2022-09-14T08:11:36;21.40;;;4.67;;
5543;SDS011;2795;47.652;13.128;2022-09-14T08:14:05;29.43;;;4.53;;
5543;SDS011;2795;47.652;13.128;2022-09-14T08:16:35;11.43;;;3.17;;
5543;SDS011;2795;47.652;13.128;2022-09-14T08:19:05;16.87;;;3.70;;
5543;SDS011;2795;47.652;13.128;2022-09-14T08:21:35;14.63;;;3.77;;
5543;SDS011;2795;47.652;13.128;2022-09-14T08:24:02;13.50;;;3.33;;
5543;SDS011;2795;47.652;13.128;2022-09-14T08:26:29;19.67;;;3.87;;
5543;SDS011;2795;47.652;13.128;2022-09-14T08:28:56;8.73;;;3.20;;
5543;SDS011;2795;47.652;13.128;2022-09-14T08:31:26;8.93;;;3.00;;
5543;SDS011;2795;47.652;13.128;2022-09-14T08:33:57;8.60;;;3.70;;
5543;SDS011;2795;47.652;13.128;2022-09-14T08:36:26;9.63;;;3.23;;
5543;SDS011;2795;47.652;13.128;2022-09-14T08:38:54;8.33;;;3.20;;
5543;SDS011;2795;47.652;13.128;2022-09-14T08:46:37;16.50;;;6.13;;
5543;SDS011;2795;47.652;13.128;2022-09-14T08:49:10;18.00;;;5.83;;
5543;SDS011;2795;47.652;13.128;2022-09-14T08:51:41;16.17;;;4.00;;
5543;SDS011;2795;47.652;13.128;2022-09-14T08:54:08;14.00;;;4.23;;
5543;SDS011;2795;47.652;13.128;2022-09-14T08:56:36;10.03;;;3.70;;
5543;SDS011;2795;47.652;13.128;2022-09-14T09:04:54;12.33;;;3.43;;
5543;SDS011;2795;47.652;13.128;2022-09-14T09:07:41;6.53;;;2.90;;
5543;SDS011;2795;47.652;13.128;2022-09-14T09:10:17;9.77;;;3.47;;
5543;SDS011;2795;47.652;13.128;2022-09-14T09:12:44;20.03;;;5.00;;
5543;SDS011;2795;47.652;13.128;2022-09-14T09:15:16;7.90;;;3.27;;
5543;SDS011;2795;47.652;13.128;2022-09-14T09:17:47;8.70;;;3.23;;
5543;SDS011;2795;47.652;13.128;2022-09-14T09:20:23;18.37;;;4.50;;
5543;SDS011;2795;47.652;13.128;2022-09-14T09:22:55;11.83;;;3.33;;
5543;SDS011;2795;47.652;13.128;2022-09-14T09:25:52;15.70;;;3.93;;
5543;SDS011;2795;47.652;13.128;2022-09-14T09:28:23;14.03;;;3.03;;
5543;SDS011;2795;47.652;13.128;2022-09-14T09:30:51;27.93;;;3.70;;
5543;SDS011;2795;47.652;13.128;2022-09-14T09:33:21;9.90;;;3.37;;
5543;SDS011;2795;47.652;13.128;2022-09-14T09:35:50;12.43;;;3.20;;
5543;SDS011;2795;47.652;13.128;2022-09-14T09:38:19;17.53;;;3.63;;
5543;SDS011;2795;47.652;13.128;2022-09-14T09:41:36;9.60;;;3.37;;
5543;SDS011;2795;47.652;13.128;2022-09-14T09:43:58;11.17;;;3.07;;
5543;SDS011;2795;47.652;13.128;2022-09-14T09:46:28;16.47;;;5.50;;
5543;SDS011;2795;47.652;13.128;2022-09-14T09:48:58;8.33;;;3.27;;
5543;SDS011;2795;47.652;13.128;2022-09-14T09:51:31;18.40;;;4.43;;
5543;SDS011;2795;47.652;13.128;2022-09-14T09:56:51;14.67;;;3.57;;
5543;SDS011;2795;47.652;13.128;2022-09-14T09:59:38;8.03;;;3.43;;
5543;SDS011;2795;47.652;13.128;2022-09-14T10:04:59;10.50;;;3.70;;
5543;SDS011;2795;47.652;13.128;2022-09-14T10:08:02;11.23;;;4.27;;
5543;SDS011;2795;47.652;13.128;2022-09-14T10:13:06;7.77;;;3.33;;
5543;SDS011;2795;47.652;13.128;2022-09-14T10:15:42;11.20;;;3.30;;
5543;SDS011;2795;47.652;13.128;2022-09-14T10:20:41;9.77;;;3.10;;
5543;SDS011;2795;47.652;13.128;2022-09-14T10:25:46;17.60;;;4.23;;
5543;SDS011;2795;47.652;13.128;2022-09-14T10:30:59;7.90;;;2.87;;
5543;SDS011;2795;47.652;13.128;2022-09-14T10:33:28;12.73;;;3.50;;
5543;SDS011;2795;47.652;13.128;2022-09-14T10:38:29;11.87;;;3.23;;
5543;SDS011;2795;47.652;13.128;2022-09-14T10:46:28;13.57;;;3.60;;
5543;SDS011;2795;47.652;13.128;2022-09-14T10:51:44;7.63;;;3.13;;
5543;SDS011;2795;47.652;13.128;2022-09-14T10:57:00;17.53;;;3.80;;
5543;SDS011;2795;47.652;13.128;2022-09-14T10:59:55;11.23;;;3.77;;
5543;SDS011;2795;47.652;13.128;2022-09-14T11:02:40;10.03;;;3.10;;
5543;SDS011;2795;47.652;13.128;2022-09-14T11:13:48;6.50;;;2.63;;
5543;SDS011;2795;47.652;13.128;2022-09-14T11:19:31;9.20;;;3.50;;
5543;SDS011;2795;47.652;13.128;2022-09-14T11:27:27;14.53;;;3.80;;
5543;SDS011;2795;47.652;13.128;2022-09-14T11:29:58;15.23;;;4.00;;
5543;SDS011;2795;47.652;13.128;2022-09-14T11:32:34;5.60;;;2.90;;
5543;SDS011;2795;47.652;13.128;2022-09-14T11:35:38;7.13;;;3.50;;
5543;SDS011;2795;47.652;13.128;2022-09-14T11:38:18;8.60;;;2.93;;
5543;SDS011;2795;47.652;13.128;2022-09-14T11:40:48;15.77;;;3.30;;
5543;SDS011;2795;47.652;13.128;2022-09-14T11:46:19;8.03;;;2.90;;
5543;SDS011;2795;47.652;13.128;2022-09-14T11:51:40;10.67;;;3.30;;
5543;SDS011;2795;47.652;13.128;2022-09-14T11:54:16;12.47;;;3.30;;
5543;SDS011;2795;47.652;13.128;2022-09-14T11:56:50;17.93;;;4.30;;
5543;SDS011;2795;47.652;13.128;2022-09-14T11:59:55;7.70;;;3.30;;
5543;SDS011;2795;47.652;13.128;2022-09-14T12:10:20;14.20;;;3.50;;
5543;SDS011;2795;47.652;13.128;2022-09-14T12:17:50;9.60;;;3.07;;
5543;SDS011;2795;47.652;13.128;2022-09-14T12:23:03;8.60;;;2.20;;
5543;SDS011;2795;47.652;13.128;2022-09-14T12:25:59;11.37;;;3.10;;
5543;SDS011;2795;47.652;13.128;2022-09-14T12:36:03;7.10;;;3.07;;
5543;SDS011;2795;47.652;13.128;2022-09-14T12:56:41;11.77;;;3.70;;
5543;SDS011;2795;47.652;13.128;2022-09-14T12:59:14;10.00;;;3.20;;
5543;SDS011;2795;47.652;13.128;2022-09-14T13:04:40;16.00;;;4.50;;
5543;SDS011;2795;47.652;13.128;2022-09-14T13:07:17;11.90;;;3.70;;
5543;SDS011;2795;47.652;13.128;2022-09-14T13:09:54;12.73;;;3.83;;
5543;SDS011;2795;47.652;13.128;2022-09-14T13:12:22;14.40;;;4.07;;
5543;SDS011;2795;47.652;13.128;2022-09-14T13:14:54;9.60;;;3.40;;
5543;SDS011;2795;47.652;13.128;2022-09-14T13:17:21;12.30;;;3.47;;
5543;SDS011;2795;47.652;13.128;2022-09-14T13:19:52;9.00;;;3.60;;
5543;SDS011;2795;47.652;13.128;2022-09-14T13:22:24;7.93;;;4.00;;
5543;SDS011;2795;47.652;13.128;2022-09-14T13:24:52;8.47;;;3.27;;
5543;SDS011;2795;47.652;13.128;2022-09-14T13:27:28;17.47;;;3.90;;
5543;SDS011;2795;47.652;13.128;2022-09-14T13:30:15;9.90;;;3.67;;
5543;SDS011;2795;47.652;13.128;2022-09-14T13:32:45;14.17;;;4.20;;
5543;SDS011;2795;47.652;13.128;2022-09-14T13:35:19;24.80;;;4.17;;
5543;SDS011;2795;47.652;13.128;2022-09-14T13:37:53;10.10;;;3.57;;
5543;SDS011;2795;47.652;13.128;2022-09-14T13:40:24;14.40;;;4.00;;
5543;SDS011;2795;47.652;13.128;2022-09-14T13:42:54;13.73;;;4.23;;
5543;SDS011;2795;47.652;13.128;2022-09-14T13:45:21;13.43;;;3.50;;
5543;SDS011;2795;47.652;13.128;2022-09-14T13:47:49;16.43;;;4.70;;
5543;SDS011;2795;47.652;13.128;2022-09-14T13:50:16;13.03;;;4.00;;
5543;SDS011;2795;47.652;13.128;2022-09-14T13:52:43;18.67;;;4.70;;
5543;SDS011;2795;47.652;13.128;2022-09-14T13:58:32;19.03;;;4.40;;
5543;SDS011;2795;47.652;13.128;2022-09-14T14:01:09;11.03;;;3.90;;
5543;SDS011;2795;47.652;13.128;2022-09-14T14:03:40;13.00;;;4.27;;
5543;SDS011;2795;47.652;13.128;2022-09-14T14:06:25;10.00;;;3.57;;
5543;SDS011;2795;47.652;13.128;2022-09-14T14:09:07;22.50;;;5.50;;
5543;SDS011;2795;47.652;13.128;2022-09-14T14:11:38;22.37;;;5.50;;
5543;SDS011;2795;47.652;13.128;2022-09-14T14:14:23;14.47;;;4.60;;
5543;SDS011;2795;47.652;13.128;2022-09-14T14:19:38;10.77;;;4.00;;
5543;SDS011;2795;47.652;13.128;2022-09-14T14:24:41;10.03;;;4.03;;
5543;SDS011;2795;47.652;13.128;2022-09-14T14:29:59;13.80;;;4.07;;
5543;SDS011;2795;47.652;13.128;2022-09-14T14:32:27;16.97;;;4.57;;
5543;SDS011;2795;47.652;13.128;2022-09-14T14:34:54;28.60;;;5.90;;
5543;SDS011;2795;47.652;13.128;2022-09-14T14:37:21;18.50;;;4.57;;
5543;SDS011;2795;47.652;13.128;2022-09-14T14:39:47;19.70;;;4.57;;
5543;SDS011;2795;47.652;13.128;2022-09-14T14:42:15;27.60;;;6.00;;
5543;SDS011;2795;47.652;13.128;2022-09-14T14:44:42;11.53;;;4.07;;
5543;SDS011;2795;47.652;13.128;2022-09-14T14:47:10;19.27;;;4.33;;
5543;SDS011;2795;47.652;13.128;2022-09-14T14:49:37;10.30;;;4.17;;
5543;SDS011;2795;47.652;13.128;2022-09-14T14:52:04;17.17;;;4.47;;
5543;SDS011;2795;47.652;13.128;2022-09-14T14:54:31;17.13;;;4.97;;
5543;SDS011;2795;47.652;13.128;2022-09-14T14:56:58;13.60;;;4.23;;
5543;SDS011;2795;47.652;13.128;2022-09-14T14:59:26;20.23;;;4.77;;
5543;SDS011;2795;47.652;13.128;2022-09-14T15:01:54;14.20;;;4.30;;
5543;SDS011;2795;47.652;13.128;2022-09-14T15:04:22;16.00;;;4.77;;
5543;SDS011;2795;47.652;13.128;2022-09-14T15:06:48;16.83;;;4.63;;
5543;SDS011;2795;47.652;13.128;2022-09-14T15:09:17;19.67;;;4.77;;
5543;SDS011;2795;47.652;13.128;2022-09-14T15:11:48;8.67;;;3.50;;
5543;SDS011;2795;47.652;13.128;2022-09-14T15:14:18;18.83;;;5.03;;
5543;SDS011;2795;47.652;13.128;2022-09-14T15:16:51;19.83;;;4.73;;
5543;SDS011;2795;47.652;13.128;2022-09-14T15:19:23;19.17;;;5.30;;
5543;SDS011;2795;47.652;13.128;2022-09-14T15:21:49;25.23;;;6.23;;
5543;SDS011;2795;47.652;13.128;2022-09-14T15:24:16;26.40;;;6.93;;
5543;SDS011;2795;47.652;13.128;2022-09-14T15:26:43;25.83;;;6.80;;
5543;SDS011;2795;47.652;13.128;2022-09-14T15:29:10;27.53;;;5.23;;
5543;SDS011;2795;47.652;13.128;2022-09-14T15:31:39;41.27;;;8.17;;
5543;SDS011;2795;47.652;13.128;2022-09-14T15:34:06;38.37;;;9.87;;
5543;SDS011;2795;47.652;13.128;2022-09-14T15:36:36;16.43;;;5.60;;
5543;SDS011;2795;47.652;13.128;2022-09-14T15:39:08;18.03;;;5.23;;
5543;SDS011;2795;47.652;13.128;2022-09-14T15:41:36;13.33;;;5.03;;
5543;SDS011;2795;47.652;13.128;2022-09-14T15:44:03;15.30;;;4.90;;
5543;SDS011;2795;47.652;13.128;2022-09-14T15:46:30;13.53;;;4.77;;
5543;SDS011;2795;47.652;13.128;2022-09-14T15:48:57;18.33;;;4.83;;
5543;SDS011;2795;47.652;13.128;2022-09-14T15:51:24;39.07;;;7.33;;
5543;SDS011;2795;47.652;13.128;2022-09-14T15:53:50;29.67;;;5.57;;
5543;SDS011;2795;47.652;13.128;2022-09-14T15:56:18;13.23;;;4.33;;
5543;SDS011;2795;47.652;13.128;2022-09-14T15:58:44;19.07;;;6.03;;
5543;SDS011;2795;47.652;13.128;2022-09-14T16:01:13;35.30;;;7.97;;
5543;SDS011;2795;47.652;13.128;2022-09-14T16:03:41;23.27;;;7.30;;
5543;SDS011;2795;47.652;13.128;2022-09-14T16:06:08;20.63;;;5.40;;
5543;SDS011;2795;47.652;13.128;2022-09-14T16:08:36;28.73;;;6.83;;
5543;SDS011;2795;47.652;13.128;2022-09-14T16:11:03;13.73;;;4.97;;
5543;SDS011;2795;47.652;13.128;2022-09-14T16:13:32;17.40;;;5.13;;
5543;SDS011;2795;47.652;13.128;2022-09-14T16:16:03;12.70;;;5.20;;
5543;SDS011;2795;47.652;13.128;2022-09-14T16:18:31;23.93;;;5.90;;
5543;SDS011;2795;47.652;13.128;2022-09-14T16:21:09;23.10;;;5.70;;
5543;SDS011;2795;47.652;13.128;2022-09-14T16:23:44;18.33;;;5.00;;
5543;SDS011;2795;47.652;13.128;2022-09-14T16:26:26;9.70;;;4.50;;
5543;SDS011;2795;47.652;13.128;2022-09-14T16:28:54;24.70;;;6.87;;
5543;SDS011;2795;47.652;13.128;2022-09-14T16:31:22;20.63;;;5.50;;
5543;SDS011;2795;47.652;13.128;2022-09-14T16:34:00;16.23;;;4.40;;
5543;SDS011;2795;47.652;13.128;2022-09-14T16:36:29;18.13;;;5.17;;
5543;SDS011;2795;47.652;13.128;2022-09-14T16:39:02;22.87;;;5.60;;
5543;SDS011;2795;47.652;13.128;2022-09-14T16:41:31;25.47;;;6.10;;
5543;SDS011;2795;47.652;13.128;2022-09-14T16:43:59;18.23;;;5.03;;
5543;SDS011;2795;47.652;13.128;2022-09-14T16:46:27;15.87;;;4.60;;
5543;SDS011;2795;47.652;13.128;2022-09-14T16:48:55;37.40;;;4.40;;
5543;SDS011;2795;47.652;13.128;2022-09-14T16:51:24;32.80;;;5.53;;
5543;SDS011;2795;47.652;13.128;2022-09-14T16:53:52;19.80;;;4.80;;
5543;SDS011;2795;47.652;13.128;2022-09-14T16:56:22;24.53;;;4.70;;
5543;SDS011;2795;47.652;13.128;2022-09-14T16:58:50;12.43;;;4.20;;
5543;SDS011;2795;47.652;13.128;2022-09-14T17:03:49;17.87;;;4.00;;
5543;SDS011;2795;47.652;13.128;2022-09-14T17:06:18;17.60;;;3.33;;
5543;SDS011;2795;47.652;13.128;2022-09-14T17:08:46;21.42;;;3.40;;
5543;SDS011;2795;47.652;13.128;2022-09-14T17:11:13;18.20;;;4.13;;
5543;SDS011;2795;47.652;13.128;2022-09-14T17:13:41;11.90;;;4.00;;
5543;SDS011;2795;47.652;13.128;2022-09-14T17:16:10;13.17;;;3.63;;
5543;SDS011;2795;47.652;13.128;2022-09-14T17:18:40;15.83;;;4.10;;
5543;SDS011;2795;47.652;13.128;2022-09-14T17:21:10;20.97;;;4.77;;
5543;SDS011;2795;47.652;13.128;2022-09-14T17:23:38;30.17;;;4.70;;
5543;SDS011;2795;47.652;13.128;2022-09-14T17:26:06;28.37;;;5.10;;
5543;SDS011;2795;47.652;13.128;2022-09-14T17:28:34;17.37;;;4.30;;
5543;SDS011;2795;47.652;13.128;2022-09-14T17:31:02;20.93;;;4.70;;
5543;SDS011;2795;47.652;13.128;2022-09-14T17:33:30;14.80;;;4.60;;
5543;SDS011;2795;47.652;13.128;2022-09-14T17:35:57;18.50;;;4.77;;
5543;SDS011;2795;47.652;13.128;2022-09-14T17:38:25;17.43;;;5.00;;
5543;SDS011;2795;47.652;13.128;2022-09-14T17:41:03;18.27;;;4.27;;
5543;SDS011;2795;47.652;13.128;2022-09-14T17:43:31;15.90;;;4.50;;